Brownstown, PA (17508)

5:19 PM EDT on August 27, 2014 (GMT -0400)
Lititz Run, near Millport Conservancy | Change Station
CLOSE
Current Station
Personal Weather Station
Location: Lititz, PA
Elevation: 410 ft
Nearby Weather Stations

Elev 410 ft 40.14 °N, 76.26 °W | Updated 10 minutes ago

Clear
Clear
89.3 °F
Feels Like 95 °F
N
1.0
Wind Variable Wind from SW
Gusts 5.0 mph

Today
High -- | Low -- °F
--% Chance of Precip.
Yesterday
High -- | Low -- °F
Precip. -- in
6:27 AM 7:44 PM
Waxing Crescent, 5% visible
Pressure 29.92 in
Visibility 10.0 miles
Clouds Clear
Heat Index 95 °F
Dew Point 70 °F
Humidity 54%
Rainfall 0.00 in
Snow Depth Not available.
UV 3 out of 12
Pollen 10.00 out of 12
Ozone Moderate
PM2.5 Moderate
Flu Activity Not available.
METAR KLNS 272053Z 27008KT 10SM CLR 31/19 A2993 RMK AO2 SLP132 T03060189 56020

More Conditions Fewer Conditions

Pressure 29.92 in
Visibility 10.0 miles
Clouds Clear
Heat Index 95 °F
Dew Point 70 °F
Humidity 54%
Rainfall 0.00 in
Snow Depth Not available.
UV 3 out of 12
Pollen 10.00 out of 12
Ozone Moderate
PM2.5 Moderate
Flu Activity Not available.
METAR KLNS 272053Z 27008KT 10SM CLR 31/19 A2993 RMK AO2 SLP132 T03060189 56020

More Conditions Fewer Conditions

10-Day Weather Forecast

Almanac

Astronomy

Aug. 27, 2014 Rise Set
Actual Time 6:27 AM EDT 7:44 PM EDT
Civil Twilight 5:59 AM EDT 8:12 PM EDT
Nautical Twilight 5:25 AM EDT 8:45 PM EDT
Astronomical Twilight 4:50 AM EDT 9:21 PM EDT
Moon 8:21 AM EDT 8:35 PM EDT
Length of Visible Light 14h 12m
Length of Day
13h 16m
Tomorrow will be 2m 30s shorter.
Waxing Crescent, 5% of the Moon is Illuminated
Today
Waxing Crescent
Sep 2
First Quarter
Sep 8
Full
Sep 15
Last Quarter
Sep 24
New

Today's Extremes

State Highs State Lows

Community

WunderPhotos

Upload Photos

1,747,789 photos uploaded!

Nearby

Air Quality

  Air Quality AQ Index Pollutant
Yesterday Moderate
OZONE
Yesterday Moderate
PM2.5
Current Moderate
OZONE
Current Moderate
PM2.5
Wednesday Moderate
OZONE
Wednesday Moderate
PM2.5
Thursday Good
PM2.5
Thursday Good
OZONE
Friday Good
PM2.5
Friday Good
OZONE

Snow Depth

Station Depth Elevation
No new snow has been reported.

Earthquake Activity

City Distance Mag. Time & Date
No recent earthquake activity has been reported nearby.
Minimum magnitude displayed is 2.5.

Coastal Water Temperatures

Place Temperature
No Stations Reporting

Nearby Weather Stations